createdAt,value
2022-08-11T00:02:27.311Z,53.60
2022-08-11T00:04:55.777Z,53.48
2022-08-11T00:07:23.707Z,53.74
2022-08-11T00:09:51.167Z,53.84
2022-08-11T00:12:18.220Z,54.05
2022-08-11T00:14:46.246Z,54.13
2022-08-11T00:17:15.767Z,54.23
2022-08-11T00:20:12.052Z,54.45
2022-08-11T00:22:35.337Z,54.50
2022-08-11T00:25:19.968Z,54.23
2022-08-11T00:27:48.054Z,54.47
2022-08-11T00:30:15.587Z,54.52
2022-08-11T00:32:44.956Z,54.75
2022-08-11T00:35:54.810Z,54.80
2022-08-11T00:38:03.513Z,54.87
2022-08-11T00:40:42.027Z,54.97
2022-08-11T00:43:42.927Z,54.86
2022-08-11T00:46:16.206Z,54.86
2022-08-11T00:51:56.689Z,55.27
2022-08-11T00:54:45.430Z,55.38
2022-08-11T00:57:37.628Z,55.57
2022-08-11T01:00:20.578Z,55.37
2022-08-11T01:03:10.488Z,55.65
2022-08-11T01:05:56.494Z,55.53
2022-08-11T01:08:38.042Z,56.51
2022-08-11T01:11:27.157Z,55.87
2022-08-11T01:14:34.545Z,56.22
2022-08-11T01:17:28.103Z,56.09
2022-08-11T01:20:45.102Z,56.12
2022-08-11T01:23:47.712Z,55.90
2022-08-11T01:26:49.063Z,56.12
2022-08-11T01:29:37.203Z,56.68
2022-08-11T01:32:48.769Z,56.62
2022-08-11T01:35:34.278Z,56.69
2022-08-11T01:38:13.227Z,56.51
2022-08-11T01:41:21.115Z,56.69
2022-08-11T01:44:38.226Z,56.62
2022-08-11T01:47:52.403Z,56.79
2022-08-11T01:50:24.139Z,56.78
2022-08-11T01:53:05.506Z,56.93
2022-08-11T01:55:50.800Z,57.07
2022-08-11T01:58:44.617Z,57.05
2022-08-11T02:01:20.324Z,56.87
2022-08-11T02:04:19.899Z,57.48
2022-08-11T02:07:02.480Z,57.31
2022-08-11T02:09:28.880Z,57.39
2022-08-11T02:12:03.269Z,57.56
2022-08-11T02:14:39.485Z,57.57
2022-08-11T02:17:21.166Z,57.84
2022-08-11T02:20:32.675Z,57.64
2022-08-11T02:23:40.974Z,57.88
2022-08-11T02:26:22.563Z,57.79
2022-08-11T02:28:53.912Z,58.02
2022-08-11T02:32:15.602Z,58.25
2022-08-11T02:35:09.987Z,58.13
2022-08-11T02:37:45.576Z,58.11
2022-08-11T02:40:22.621Z,58.30
2022-08-11T02:42:49.307Z,58.20
2022-08-11T02:45:46.162Z,58.61
2022-08-11T02:48:53.167Z,58.76
2022-08-11T02:51:39.832Z,58.84
2022-08-11T02:54:25.366Z,58.78
2022-08-11T02:57:02.010Z,58.82
2022-08-11T02:59:50.508Z,59.10
2022-08-11T03:02:32.385Z,58.81
2022-08-11T03:05:11.887Z,59.04
2022-08-11T03:07:48.045Z,58.50
2022-08-11T03:10:23.296Z,58.96
2022-08-11T03:13:32.473Z,59.38
2022-08-11T03:16:34.803Z,59.19
2022-08-11T03:19:26.405Z,59.33
2022-08-11T03:22:22.107Z,59.47
2022-08-11T03:25:15.111Z,59.40
2022-08-11T03:27:53.121Z,59.48
2022-08-11T03:30:27.787Z,59.47
2022-08-11T03:33:31.857Z,59.62
2022-08-11T03:36:26.241Z,59.71
2022-08-11T03:39:06.623Z,59.38
2022-08-11T03:42:02.329Z,59.84
2022-08-11T03:44:59.988Z,59.84
2022-08-11T03:47:52.338Z,59.77
2022-08-11T03:50:59.353Z,59.89
2022-08-11T03:54:02.889Z,59.90
2022-08-11T03:57:17.471Z,59.98
2022-08-11T04:00:21.428Z,59.98
2022-08-11T04:03:23.322Z,60.15
2022-08-11T04:06:19.902Z,60.22
2022-08-11T04:09:24.830Z,60.34
2022-08-11T04:12:11.627Z,60.19
2022-08-11T04:15:22.732Z,60.57
2022-08-11T04:18:06.782Z,60.81
2022-08-11T04:20:49.794Z,60.82
2022-08-11T04:24:35.189Z,60.74
2022-08-11T04:27:14.368Z,60.56
2022-08-11T04:30:13.112Z,60.55
2022-08-11T04:33:02.646Z,60.70
2022-08-11T04:35:51.443Z,60.73
2022-08-11T04:38:39.652Z,61.10
2022-08-11T04:41:57.956Z,60.98
2022-08-11T04:44:50.978Z,61.13
2022-08-11T04:48:04.886Z,61.31
2022-08-11T04:51:08.823Z,61.23
2022-08-11T04:54:17.481Z,61.23
2022-08-11T04:57:04.912Z,61.59
2022-08-11T05:00:17.582Z,61.47
2022-08-11T05:02:58.293Z,61.57
2022-08-11T05:05:56.310Z,61.79
2022-08-11T05:08:50.974Z,61.70
2022-08-11T05:11:45.035Z,62.01
2022-08-11T05:14:30.223Z,62.23
2022-08-11T05:17:19.280Z,62.40
2022-08-11T05:20:05.575Z,62.35
2022-08-11T05:22:53.010Z,62.60
2022-08-11T05:26:42.857Z,62.93
2022-08-11T05:29:21.016Z,62.84
2022-08-11T05:32:14.532Z,63.28
2022-08-11T05:34:56.888Z,63.04
2022-08-11T05:37:27.715Z,63.45
2022-08-11T05:40:29.289Z,63.25
2022-08-11T05:43:20.901Z,63.01
2022-08-11T05:46:19.041Z,63.05
2022-08-11T05:49:05.224Z,63.27
2022-08-11T05:52:05.258Z,63.22
2022-08-11T05:54:51.180Z,63.12
2022-08-11T05:57:48.961Z,62.76
2022-08-11T06:00:14.424Z,62.70
2022-08-11T06:02:43.402Z,62.62
2022-08-11T06:05:11.545Z,62.80
2022-08-11T06:07:48.856Z,62.30
2022-08-11T06:10:30.690Z,61.98
2022-08-11T06:12:58.544Z,62.40
2022-08-11T06:15:25.932Z,61.41
2022-08-11T06:17:53.933Z,60.55
2022-08-11T06:20:22.638Z,60.90
2022-08-11T06:22:58.661Z,61.57
2022-08-11T06:25:37.058Z,60.96
2022-08-11T06:28:08.153Z,60.98
2022-08-11T06:30:40.726Z,61.00
2022-08-11T06:33:29.435Z,60.65
2022-08-11T06:36:30.974Z,60.62
2022-08-11T06:39:12.791Z,60.53
2022-08-11T06:42:07.501Z,59.57
2022-08-11T06:44:45.773Z,58.59
2022-08-11T06:47:15.123Z,57.87
2022-08-11T06:50:06.045Z,56.56
2022-08-11T06:52:36.496Z,56.21
2022-08-11T06:55:11.343Z,56.03
2022-08-11T06:58:14.178Z,56.17
2022-08-11T07:00:41.723Z,55.85
2022-08-11T07:03:16.464Z,56.31
2022-08-11T07:05:48.726Z,54.77
2022-08-11T07:08:57.149Z,55.41
2022-08-11T07:12:00.976Z,56.00
2022-08-11T07:14:49.818Z,55.77
2022-08-11T07:17:20.961Z,55.85
2022-08-11T07:20:11.554Z,54.23
2022-08-11T07:22:57.809Z,53.85
2022-08-11T07:25:44.620Z,54.56
2022-08-11T07:28:43.596Z,54.45
2022-08-11T07:31:13.902Z,54.45
2022-08-11T07:34:07.442Z,55.15
2022-08-11T07:36:38.717Z,54.94
2022-08-11T07:39:10.703Z,54.09
2022-08-11T07:41:37.358Z,54.36
2022-08-11T07:44:11.475Z,52.95
2022-08-11T07:47:01.564Z,53.42
2022-08-11T07:49:50.686Z,52.85
2022-08-11T07:52:26.961Z,52.72
2022-08-11T07:54:55.220Z,51.83
2022-08-11T07:58:04.401Z,51.35
2022-08-11T08:00:51.698Z,50.20
2022-08-11T08:03:38.030Z,50.04
2022-08-11T08:06:39.598Z,50.84
2022-08-11T08:09:27.067Z,51.55
2022-08-11T08:12:13.759Z,51.17
2022-08-11T08:14:59.201Z,51.22
2022-08-11T08:18:20.826Z,51.73
2022-08-11T08:20:40.130Z,51.00
2022-08-11T08:23:07.988Z,50.43
2022-08-11T08:25:37.968Z,48.78
2022-08-11T08:28:09.351Z,48.83
2022-08-11T08:30:50.899Z,47.91
2022-08-11T08:33:22.166Z,49.59
2022-08-11T08:36:12.812Z,49.24
2022-08-11T08:39:00.896Z,47.49
2022-08-11T08:41:30.108Z,46.68
2022-08-11T08:44:34.686Z,47.52
2022-08-11T08:46:54.208Z,48.86
2022-08-11T08:49:27.700Z,46.65
2022-08-11T08:52:19.454Z,47.98
2022-08-11T08:54:48.303Z,45.84
2022-08-11T08:57:18.693Z,45.25
2022-08-11T08:59:49.779Z,44.91
2022-08-11T09:02:33.907Z,45.69
2022-08-11T09:05:03.770Z,44.79
2022-08-11T09:07:38.431Z,45.83
2022-08-11T09:10:07.264Z,45.20
2022-08-11T09:12:38.385Z,46.90
2022-08-11T09:15:08.981Z,45.64
2022-08-11T09:17:45.603Z,45.09
2022-08-11T09:20:24.688Z,44.52
2022-08-11T09:26:20.848Z,42.27
2022-08-11T09:28:49.638Z,40.92
2022-08-11T09:31:16.916Z,41.91
2022-08-11T09:33:44.418Z,42.78
2022-08-11T09:36:32.331Z,41.97
2022-08-11T09:39:19.377Z,42.36
2022-08-11T09:42:00.806Z,43.02
2022-08-11T09:44:48.526Z,43.77
2022-08-11T09:47:27.955Z,43.57
2022-08-11T09:50:00.399Z,43.80
2022-08-11T09:52:30.704Z,43.65
2022-08-11T09:54:57.666Z,43.87
2022-08-11T09:57:43.981Z,43.87
2022-08-11T10:00:14.102Z,42.15
2022-08-11T10:02:45.006Z,40.36
2022-08-11T10:05:33.128Z,39.40
2022-08-11T10:08:01.439Z,39.88
2022-08-11T10:10:28.896Z,38.56
2022-08-11T10:13:04.219Z,41.31
2022-08-11T10:15:33.896Z,40.52
2022-08-11T10:18:24.504Z,40.93
2022-08-11T10:20:55.324Z,39.57
2022-08-11T10:24:00.087Z,38.99
2022-08-11T10:26:48.337Z,37.28
2022-08-11T10:29:37.500Z,36.75
2022-08-11T10:32:24.696Z,36.65
2022-08-11T10:34:59.866Z,35.93
2022-08-11T10:38:07.485Z,36.59
2022-08-11T10:40:23.755Z,35.99
2022-08-11T10:43:07.007Z,34.96
2022-08-11T10:45:54.722Z,30.44
2022-08-11T10:48:23.907Z,28.87
2022-08-11T10:51:10.052Z,24.72
2022-08-11T10:53:57.419Z,23.47
2022-08-11T10:56:43.425Z,23.33
2022-08-11T10:59:10.695Z,21.52
2022-08-11T11:01:44.240Z,20.96
2022-08-11T11:04:17.331Z,19.53
2022-08-11T11:07:02.393Z,18.46
2022-08-11T11:09:32.410Z,17.46
2022-08-11T11:12:41.997Z,17.49
2022-08-11T11:15:28.801Z,15.34
2022-08-11T11:18:07.434Z,15.34
2022-08-11T11:20:47.059Z,14.81
2022-08-11T11:23:20.170Z,14.42
2022-08-11T11:26:10.240Z,14.21
2022-08-11T11:28:49.794Z,13.47
2022-08-11T11:31:53.845Z,13.26
2022-08-11T11:34:36.843Z,12.39
2022-08-11T11:37:19.762Z,12.15
2022-08-11T11:39:47.027Z,11.53
2022-08-11T11:42:14.350Z,11.14
2022-08-11T11:44:44.490Z,11.39
2022-08-11T11:47:12.752Z,10.92
2022-08-11T11:49:43.981Z,11.13
2022-08-11T11:52:15.204Z,9.95
2022-08-11T11:54:42.293Z,9.37
2022-08-11T11:57:27.651Z,10.90
2022-08-11T12:00:14.308Z,10.43
2022-08-11T12:02:41.831Z,9.89
2022-08-11T12:05:10.223Z,9.13
2022-08-11T12:08:05.220Z,9.48
2022-08-11T12:10:44.186Z,8.72
2022-08-11T12:13:30.038Z,9.19
2022-08-11T12:16:31.728Z,8.73
2022-08-11T12:18:47.409Z,9.35
2022-08-11T12:21:16.930Z,8.24
2022-08-11T12:24:05.365Z,8.80
2022-08-11T12:27:14.816Z,8.12
2022-08-11T12:29:41.216Z,8.37
2022-08-11T12:32:11.036Z,7.77
2022-08-11T12:34:37.490Z,7.49
2022-08-11T12:37:06.882Z,8.59
2022-08-11T12:40:17.029Z,7.80
2022-08-11T12:43:04.075Z,10.06
2022-08-11T12:45:38.240Z,11.16
2022-08-11T12:49:00.881Z,12.02
2022-08-11T12:52:11.047Z,13.27
2022-08-11T12:54:45.496Z,13.60
2022-08-11T12:57:58.403Z,14.01
2022-08-11T13:00:46.864Z,13.04
2022-08-11T13:03:32.561Z,11.68
2022-08-11T13:06:02.485Z,10.93
2022-08-11T13:08:33.935Z,11.16
2022-08-11T13:11:20.757Z,10.35
2022-08-11T13:13:53.471Z,10.54
2022-08-11T13:16:26.497Z,11.89
2022-08-11T13:18:53.791Z,13.52
2022-08-11T13:21:21.765Z,14.94
2022-08-11T13:24:01.205Z,15.86
2022-08-11T13:26:48.620Z,16.73
2022-08-11T13:29:27.919Z,17.06
2022-08-11T13:32:00.193Z,18.19
2022-08-11T13:34:28.103Z,19.02
2022-08-11T13:36:57.998Z,19.78
2022-08-11T13:39:26.891Z,20.59
2022-08-11T13:41:56.292Z,20.69
2022-08-11T13:44:27.051Z,21.46
2022-08-11T13:46:57.507Z,21.99
2022-08-11T13:49:25.601Z,22.83
2022-08-11T13:51:54.089Z,23.20
2022-08-11T13:54:27.519Z,22.76
2022-08-11T13:56:56.699Z,23.58
2022-08-11T13:59:29.548Z,23.34
2022-08-11T14:02:28.828Z,23.25
2022-08-11T14:04:57.247Z,23.85
2022-08-11T14:07:45.407Z,23.70
2022-08-11T14:10:14.711Z,24.15
2022-08-11T14:13:05.938Z,24.58
2022-08-11T14:15:34.626Z,25.19
2022-08-11T14:18:05.547Z,24.28
2022-08-11T14:20:54.089Z,24.39
2022-08-11T14:23:31.483Z,24.75
2022-08-11T14:26:17.163Z,25.40
2022-08-11T14:28:45.330Z,25.76
2022-08-11T14:31:15.057Z,25.75
2022-08-11T14:33:59.799Z,25.95
2022-08-11T14:36:31.849Z,25.50
2022-08-11T14:38:58.831Z,25.94
2022-08-11T14:42:11.066Z,25.61
2022-08-11T14:44:52.681Z,26.55
2022-08-11T14:47:22.993Z,26.29
2022-08-11T14:50:09.773Z,26.20
2022-08-11T14:52:39.875Z,27.13
2022-08-11T14:55:26.840Z,26.52
2022-08-11T14:57:56.679Z,27.31
2022-08-11T15:00:24.992Z,27.71
2022-08-11T15:03:10.710Z,28.12
2022-08-11T15:05:56.636Z,28.43
2022-08-11T15:08:46.392Z,29.13
2022-08-11T15:11:33.872Z,29.17
2022-08-11T15:14:02.138Z,29.64
2022-08-11T15:16:48.053Z,29.36
2022-08-11T15:19:16.409Z,28.98
2022-08-11T15:22:01.385Z,29.47
2022-08-11T15:24:30.823Z,30.34
2022-08-11T15:27:39.454Z,29.99
2022-08-11T15:30:33.833Z,30.32
2022-08-11T15:33:27.473Z,30.69
2022-08-11T15:36:32.032Z,30.84
2022-08-11T15:39:02.069Z,30.89
2022-08-11T15:41:58.866Z,30.41
2022-08-11T15:45:02.583Z,30.54
2022-08-11T15:47:39.309Z,30.94
2022-08-11T15:50:14.283Z,31.17
2022-08-11T15:52:50.041Z,31.25
2022-08-11T15:55:18.509Z,31.26
2022-08-11T15:58:08.092Z,31.47
2022-08-11T16:00:56.841Z,31.58
2022-08-11T16:04:07.511Z,31.23
2022-08-11T16:06:38.962Z,31.21
2022-08-11T16:09:18.399Z,31.72
2022-08-11T16:11:46.869Z,31.58
2022-08-11T16:14:36.337Z,31.40
2022-08-11T16:17:05.971Z,31.82
2022-08-11T16:19:36.650Z,31.84
2022-08-11T16:22:10.359Z,31.81
2022-08-11T16:27:03.508Z,31.70
2022-08-11T16:27:34.060Z,32.05
2022-08-11T16:30:01.888Z,31.91
2022-08-11T16:32:31.156Z,32.00
2022-08-11T16:35:20.069Z,31.62
2022-08-11T16:38:05.935Z,32.40
2022-08-11T16:40:34.298Z,31.91
2022-08-11T16:43:22.051Z,32.32
2022-08-11T16:46:07.948Z,32.44
2022-08-11T16:48:38.485Z,32.13
2022-08-11T16:51:07.445Z,32.55
2022-08-11T16:53:59.570Z,32.81
2022-08-11T16:56:24.995Z,32.41
2022-08-11T16:59:14.991Z,32.56
2022-08-11T17:01:53.829Z,32.35
2022-08-11T17:04:54.278Z,32.74
2022-08-11T17:07:43.347Z,33.19
2022-08-11T17:10:51.076Z,32.95
2022-08-11T17:13:25.852Z,33.11
2022-08-11T17:16:09.906Z,33.45
2022-08-11T17:19:04.271Z,33.21
2022-08-11T17:21:33.888Z,33.23
2022-08-11T17:24:09.094Z,33.27
2022-08-11T17:26:57.108Z,33.42
2022-08-11T17:29:54.754Z,33.41
2022-08-11T17:32:57.046Z,33.50
2022-08-11T17:35:33.191Z,33.44
2022-08-11T17:38:15.173Z,33.29
2022-08-11T17:41:05.547Z,33.60
2022-08-11T17:43:51.435Z,33.71
2022-08-11T17:46:37.731Z,33.50
2022-08-11T17:49:07.695Z,33.30
2022-08-11T17:51:54.675Z,33.50
2022-08-11T17:54:42.032Z,33.36
2022-08-11T17:57:28.718Z,33.09
2022-08-11T17:59:57.694Z,33.24
2022-08-11T18:02:51.900Z,33.33
2022-08-11T18:05:21.457Z,33.96
2022-08-11T18:08:10.251Z,33.67
2022-08-11T18:10:57.235Z,33.46
2022-08-11T18:13:45.423Z,33.31
2022-08-11T18:16:30.989Z,33.77
2022-08-11T18:19:19.883Z,33.70
2022-08-11T18:22:15.472Z,33.99
2022-08-11T18:25:14.396Z,34.32
2022-08-11T18:28:04.647Z,34.44
2022-08-11T18:31:03.255Z,34.61
2022-08-11T18:34:06.811Z,34.98
2022-08-11T18:36:59.263Z,35.42
2022-08-11T18:39:54.596Z,35.53
2022-08-11T18:42:43.258Z,35.86
2022-08-11T18:45:33.023Z,35.79
2022-08-11T18:48:37.339Z,36.32
2022-08-11T18:51:30.501Z,35.91
2022-08-11T18:54:25.965Z,36.02
2022-08-11T18:57:14.936Z,36.21
2022-08-11T19:00:02.337Z,36.61
2022-08-11T19:02:50.659Z,36.47
2022-08-11T19:06:05.859Z,36.41
2022-08-11T19:08:50.051Z,36.26
2022-08-11T19:11:42.477Z,36.67
2022-08-11T19:14:33.468Z,36.82
2022-08-11T19:17:42.873Z,36.54
2022-08-11T19:20:31.464Z,36.58
2022-08-11T19:23:17.892Z,36.88
2022-08-11T19:26:04.812Z,37.20
2022-08-11T19:28:52.327Z,37.35
2022-08-11T19:31:43.785Z,37.07
2022-08-11T19:34:29.924Z,37.07
2022-08-11T19:37:15.658Z,37.19
2022-08-11T19:40:01.648Z,36.75
2022-08-11T19:42:47.584Z,36.85
2022-08-11T19:45:34.583Z,37.19
2022-08-11T19:48:31.865Z,37.48
2022-08-11T19:51:18.553Z,37.87
2022-08-11T19:54:06.181Z,37.91
2022-08-11T19:56:52.332Z,38.50
2022-08-11T19:59:39.200Z,38.59
2022-08-11T20:02:24.927Z,38.52
2022-08-11T20:05:10.263Z,39.40
2022-08-11T20:07:56.184Z,39.22
2022-08-11T20:10:44.626Z,38.94
2022-08-11T20:13:30.396Z,39.43
2022-08-11T20:16:17.489Z,39.62
2022-08-11T20:19:05.120Z,39.77
2022-08-11T20:21:50.602Z,39.30
2022-08-11T20:24:36.936Z,39.71
2022-08-11T20:27:25.645Z,39.65
2022-08-11T20:30:14.240Z,40.09
2022-08-11T20:33:01.103Z,40.08
2022-08-11T20:35:48.066Z,40.32
2022-08-11T20:38:34.567Z,40.39
2022-08-11T20:41:21.902Z,40.75
2022-08-11T20:44:09.654Z,40.70
2022-08-11T20:46:57.381Z,40.78
2022-08-11T20:49:53.636Z,40.87
2022-08-11T20:52:47.565Z,40.81
2022-08-11T20:55:51.170Z,41.63
2022-08-11T20:59:11.513Z,41.58
2022-08-11T21:01:45.874Z,41.51
2022-08-11T21:04:32.581Z,41.87
2022-08-11T21:07:27.095Z,41.59
2022-08-11T21:10:23.813Z,42.03
2022-08-11T21:13:25.545Z,42.14
2022-08-11T21:16:15.918Z,42.19
2022-08-11T21:19:15.872Z,42.28
2022-08-11T21:22:03.547Z,42.48
2022-08-11T21:24:50.474Z,42.66
2022-08-11T21:27:38.429Z,43.03
2022-08-11T21:30:23.893Z,43.19
2022-08-11T21:33:12.151Z,43.12
2022-08-11T21:35:58.553Z,43.42
2022-08-11T21:38:46.133Z,43.51
2022-08-11T21:41:32.070Z,43.64
2022-08-11T21:44:17.426Z,43.89
2022-08-11T21:47:05.577Z,44.15
2022-08-11T21:49:51.927Z,43.89
2022-08-11T21:52:38.076Z,44.40
2022-08-11T21:55:23.767Z,44.39
2022-08-11T21:58:11.447Z,44.65
2022-08-11T22:00:56.864Z,44.27
2022-08-11T22:03:50.206Z,44.50
2022-08-11T22:06:36.646Z,44.76
2022-08-11T22:09:22.500Z,44.83
2022-08-11T22:12:33.893Z,45.20
2022-08-11T22:15:14.138Z,45.13
2022-08-11T22:17:59.432Z,45.25
2022-08-11T22:20:46.694Z,45.46
2022-08-11T22:23:36.073Z,45.90
2022-08-11T22:26:22.341Z,45.77
2022-08-11T22:29:08.177Z,45.76
2022-08-11T22:31:55.074Z,46.24
2022-08-11T22:34:51.206Z,46.04
2022-08-11T22:37:40.380Z,46.23
2022-08-11T22:40:28.367Z,46.28
2022-08-11T22:43:13.847Z,46.47
2022-08-11T22:45:59.666Z,46.53
2022-08-11T22:48:47.592Z,46.53
2022-08-11T22:51:34.085Z,46.67
2022-08-11T22:54:21.830Z,46.73
2022-08-11T22:57:07.818Z,46.88
2022-08-11T22:59:55.201Z,47.25
2022-08-11T23:02:40.656Z,47.50
2022-08-11T23:05:27.631Z,47.25
2022-08-11T23:08:15.460Z,47.66
2022-08-11T23:11:01.399Z,47.91
2022-08-11T23:13:48.997Z,47.87
2022-08-11T23:16:35.325Z,48.05
2022-08-11T23:20:04.797Z,48.21
2022-08-11T23:22:36.999Z,48.23
2022-08-11T23:25:32.756Z,48.37
2022-08-11T23:28:20.532Z,48.58
2022-08-11T23:31:08.381Z,48.64
2022-08-11T23:33:58.762Z,48.88
2022-08-11T23:36:47.474Z,49.08
2022-08-11T23:39:34.447Z,48.99
2022-08-11T23:42:22.691Z,49.00
2022-08-11T23:45:10.172Z,49.19
2022-08-11T23:47:57.556Z,49.25
2022-08-11T23:50:43.621Z,49.54
2022-08-11T23:53:29.721Z,49.52
2022-08-11T23:56:15.261Z,49.60
2022-08-11T23:59:00.582Z,49.60
